Terminal Aerodrome Forecast
Issued by NWS

Home | Current Version | Previous Version | Graphics & Text | Print | Product List | Glossary On
Versions: 1 2 3 4 5 6 7 8 9 10 11 12 13 14 15 16 17
000
FTUS43 KICT 161735
TAFRSL
TAF
KRSL 161735Z 1618/1718 34013KT 5SM BR OVC006
      TEMPO 1618/1620 3SM -FZRA BR OVC004
     FM170000 32011KT 4SM BR OVC005
     FM171200 31009KT P6SM SCT012=

USA.gov is the U.S. government's official web portal to all federal, state and local government web resources and services.